Weather observations for the past three days for
Deadhorse, Deadhorse Airport
Metric (Imperial)
Date Time (akdt) Wind (kph) Vis. (km) Weather Sky Cond. Temperature (ºC) Relative Humidity Wind Chill (°C) Heat Index (°C) Pressure Precipitation (cm)
Air Dwpt 6 hour altimeter (cm) sea level (mb) 1 hr 3 hr 6 hr
Max. Min.
06 23:53 W 9 16.09 Overcast OVC013 -5.6 -7.8 85% -9 76.38 1018.4
06 22:53 W 15 16.09 Overcast OVC014 -5 -7.8 81% -10 76.35 1018.0
06 21:53 W 19 16.09 Overcast OVC013 -5 -7.2 -3.9 -5 85% -11 76.3 1017.6
06 20:53 W 17 16.09 Overcast OVC015 -4.4 -7.2 81% -10 76.28 1017.1
06 19:53 W 20 16.09 Overcast OVC015 -4.4 -7.2 81% -10 76.25 1016.6
06 18:53 W 24 16.09 Overcast OVC014 -4.4 -7.2 81% -11 76.2 1016.0
06 17:53 W 30 16.09 Overcast OVC014 -3.9 -6.7 81% -11 76.15 1015.4
06 16:53 W 30 16.09 Overcast OVC015 -3.9 -6.1 85% -11 76.12 1014.9
06 15:53 W 30 16.09 Overcast OVC015 -3.9 -6.7 -3.9 -5.6 81% -11 76.07 1014.4
06 14:53 W 37 16.09 Overcast and Breezy OVC014 -3.9 -6.7 81% -12 76.02 1013.7
06 13:53 W 35 16.09 Overcast and Breezy OVC014 -4.4 -6.7 84% -12 76 1013.2
06 12:53 W 30 16.09 Mostly Cloudy BKN014 -5 -7.2 85% -12 75.95 1012.6
06 11:53 W 35 16.09 Overcast and Breezy OVC013 -5 -7.2 85% -13 75.9 1012.0
06 10:53 W 31 16.09 Overcast OVC012 -5.6 -7.2 89% -13 75.87 1011.6
06 09:53 W 30 16.09 Overcast OVC012 -5.6 -7.8 -5.6 -6.7 85% -13 75.84 1011.2
06 08:53 W 31 14.48 Overcast BKN011 OVC080 -6.7 -8.3 89% -15 75.79 1010.7
06 07:53 W 33 14.48 Light Snow and Breezy SCT008 OVC015 -6.7 -7.8 92% -15 75.74 1010.1
06 06:53 W 35 12.87 Light Snow and Breezy OVC007 -6.1 -7.2 92% -14 75.72 1009.6
06 05:53 W 28 4.83 Light Snow Fog/Mist OVC008 -6.1 -7.2 92% -14 75.69 1009.2
06 04:53 W 28 16.09 Overcast BKN008 OVC015 -6.1 -7.2 92% -14 75.67 1009.0
06 03:53 W 33 9.66 Light Snow Fog/Mist and Breezy FEW008 BKN017 OVC040 -6.1 -7.2 -5 -6.1 92% -14 75.64 1008.4
06 02:53 W 26 12.87 Light Snow FEW013 BKN044 OVC055 -6.1 -7.2 92% -13 75.59 1008.0
06 01:53 W 33 4.83 Light Snow Fog/Mist and Breezy OVC033 -6.1 -7.8 88% -14 75.57 1007.6
06 00:53 W 30 4.83 Light Snow Fog/Mist OVC055 -6.1 -7.2 92% -14 75.54 1007.3
05 23:53 W 30 2.82 Light Snow Fog/Mist BKN032 OVC047 -5.6 -6.7 92% -13 75.51 1006.9
05 22:53 W 30 12.87 Overcast OVC050 -5 -6.7 88% -12 75.51 1006.7
05 21:53 W 24 3.22 Light Snow Fog/Mist BKN032 OVC050 -5 -6.1 -3.3 -5 92% -12 75.51 1006.7
05 20:53 W 24 3.22 Light Snow Fog/Mist FEW008 OVC026 -4.4 -6.1 88% -11 75.49 1006.4
05 19:53 W 26 11.27 Light Snow FEW009 OVC044 -4.4 -6.1 88% -11 75.46 1006.3
05 18:53 W 24 9.66 Fog/Mist SCT010 BKN014 OVC041 -3.9 -5.6 88% -10 75.46 1006.2
05 17:53 W 26 16.09 Overcast BKN010 BKN014 OVC041 -3.9 -5.6 88% -11 75.46 1006.0
05 16:53 W 26 6.44 Fog/Mist BKN008 OVC013 -3.9 -5.6 88% -11 75.46 1006.0
05 15:53 W 15 3.22 Light Snow Fog/Mist BKN010 OVC013 -3.3 -5 -3.3 -4.4 88% -8 75.46 1006.0
05 14:53 NW 9 4.83 Fog/Mist FEW006 OVC040 -3.3 -5 88% -7 75.46 1006.0
05 13:53 N 13 1.61 Light Snow Fog/Mist SCT005 BKN030 OVC035 -3.3 -5 88% -8 75.46 1006.3
05 12:53 N 15 1.61 Light Snow Fog/Mist SCT023 BKN030 OVC036 -3.9 -5 92% -9 75.49 1006.5
05 11:53 N 15 1.61 Light Snow Fog/Mist BKN018 OVC025 -3.9 -5 92% -9 75.51 1006.8
05 10:53 N 19 1.21 Light Snow Fog/Mist FEW004 FEW009 OVC016 -4.4 -5.6 91% -10 75.51 1006.9
05 09:53 NE 17 1.21 Light Snow Fog/Mist OVC004 -3.9 -4.4 -3.9 -3.9 96% -9 75.57 1007.5
05 08:53 NE 26 2.01 Light Snow Fog/Mist OVC004 -3.9 -4.4 96% -11 75.59 1007.8
05 07:53 NE 26 2.01 Light Snow Blowing Snow OVC004 -3.9 -5 92% -11 75.62 1008.2
05 06:53 NE 20 2.01 Light Snow Fog/Mist OVC012 -3.9 -5 92% -10 75.67 1008.8
05 05:53 NE 24 1.21 Light Snow Fog/Mist OVC007 -3.9 -5 92% -10 75.69 1009.2
05 04:53 NE 30 8.05 Fog/Mist OVC004 -3.9 -4.4 96% -11 75.74 1010.0
05 03:53 NE 26 4.83 Fog/Mist OVC003 -3.9 -4.4 -2.8 -3.9 96% -11 75.77 1010.4
05 02:53 NE 30 14.48 Overcast OVC005 -3.9 -4.4 96% -11 75.82 1011.0
05 01:53 NE 30 14.48 Overcast OVC005 -3.9 -4.4 96% -11 75.9 1011.9
05 00:53 NE 24 6.44 Fog/Mist OVC004 -3.3 -3.9 96% -10 75.95 1012.4
04 23:53 NE 28 4.83 Fog/Mist OVC004 -3.3 -3.9 96% -10 76 1013.2
04 22:53 E 31 8.05 Fog/Mist OVC004 -3.3 -3.9 96% -10 76.02 1013.6
04 21:53 E 37 6.44 Fog/Mist and Breezy OVC005 -2.8 -3.9 -2.2 -3.3 92% -10 76.07 1014.2
04 20:53 E 31 9.66 Fog/Mist OVC005 -2.8 -3.3 96% -10 76.12 1015.1
04 19:53 E 31 6.44 Fog/Mist OVC004 -2.8 -3.3 96% -10 76.17 1015.7
04 18:53 E 39 6.44 Fog/Mist and Breezy OVC004 -2.8 -3.9 92% -11 76.25 1016.5
04 17:53 E 35 6.44 Fog/Mist and Breezy BKN004 -2.8 -3.9 92% -10 76.3 1017.3
04 16:53 E 31 11.27 Overcast BKN005 OVC036 -3.3 -4.4 92% -10 76.35 1018.0
04 15:53 E 31 11.27 Overcast BKN005 OVC036 -3.3 -4.4 -2.8 -4.4 92% -10 76.4 1018.7
04 14:53 E 31 16.09 Mostly Cloudy BKN004 BKN036 BKN080 -3.3 -4.4 92% -10 76.45 1019.4
04 13:53 E 33 14.48 Mostly Cloudy and Breezy SCT004 BKN036 BKN080 -3.3 -4.4 92% -11 76.48 1019.7
04 12:53 E 26 16.09 Mostly Cloudy FEW005 BKN037 -3.3 -4.4 92% -10 76.5 1020.2
04 11:53 E 24 16.09 Overcast OVC043 -3.9 -5 92% -10 76.56 1020.6
04 10:53 E 28 9.66 Fog/Mist SCT004 BKN060 BKN090 -3.9 -5.6 88% -11 76.56 1020.9
04 09:53 E 26 3.22 Fog/Mist BKN004 OVC055 -4.4 -5 -2.8 -4.4 96% -11 76.58 1020.9
04 08:53 E 22 3.22 Light Snow Fog/Mist OVC005 -3.9 -5 92% -10 76.58 1021.2
04 07:53 NE 24 1.61 Light Snow Fog/Mist OVC003 -3.9 -5 92% -10 76.58 1021.0
04 06:53 NE 20 0.80 Light Snow Freezing Fog OVC002 -3.3 -3.9 96% -9 76.61 1021.3
04 05:53 NE 17 4.83 Fog/Mist OVC003 -3.3 -3.9 96% -8 76.58 1021.1
04 04:53 NE 13 6.44 Fog/Mist OVC003 -2.8 -3.3 96% -7 76.61 1021.3
04 03:53 NE 17 4.02 Fog/Mist OVC002 -2.8 -3.3 -1.1 -2.8 96% -8 76.58 1021.0
04 02:53 N 13 12.87 Overcast OVC005 -2.8 -3.3 96% -7 76.56 1020.7
04 01:53 N 7 12.87 Overcast OVC008 -2.2 -3.3 92% -5 76.56 1020.9
04 00:53 N 7 12.87 Overcast SCT005 BKN060 OVC110 -2.2 -2.8 96% -5 76.56 1020.6
Date Time (akdt) Wind (kph) Vis. (km) Weather Sky Cond. Air Dwpt Max. Min. Relative Humidity Wind Chill (°C) Heat Index (°C) altimeter (cm) sea level (mb) 1 hr 3 hr 6 hr
6 hour
Temperature (ºC) Pressure Precipitation (cm)